Aksmanice, Poland

12:50 PM CEST on August 17, 2017 (GMT +0200)
IWOJ.POD1 | | Change Station

Elev 659 ft 49.78 °N, 22.77 °E | Updated 6 seconds ago

Clear
Clear
88.3 °F
Feels Like 89 °F
N
4.1
Wind Variable Wind from NNE
Gusts 7.4 mph

Today
High -- | Low -- °F
--% Chance of Precip.
Yesterday
High -- | Low -- °F
Precip. -- in
Pressure 30.12 in
Visibility -9999.0 miles
Clouds
Heat Index 89 °F
Dew Point 63 °F
Humidity 42%
Rainfall Not available.
Snow Depth Not available.
5:22 AM 7:42 PM
Waning Crescent, 24% visible
METAR EPRZ 171030Z VRB04KT CAVOK 26/16 Q1020
Pressure 30.12 in
Visibility -9999.0 miles
Clouds
Heat Index 89 °F
Dew Point 63 °F
Humidity 42%
Rainfall Not available.
Snow Depth Not available.
5:22 AM 7:42 PM
Waning Crescent, 24% visible
METAR EPRZ 171030Z VRB04KT CAVOK 26/16 Q1020

Get Severe Weather Alerts

Thanks for signing up!

Be on the lookout for a verification email in your inbox.

You'll start receiving the daily forecast at 6 AM.

×

10-Day Weather Forecast

×

Almanac

Astronomy

Aug. 17, 2017 Rise Set
Actual Time
Civil Twilight
Nautical Twilight
Astronomical Twilight
Moon
Length of Visible Light
Length of Day
Tomorrow will be .
, % of the Moon is Illuminated

Today's Extremes

Country Highs Country Lows

Community

WunderPhotos

Category 6

Welcome to Category 6. This is the collective home for Weather Underground's featured writeups by Dr. Jeff Masters (right), Bob Henson (left), Chris Burt, and other regular contributors.

Nearby

Air Quality

  Air Quality AQ Index Pollutant
Not available.

Snow Depth

Station Depth Elevation

Earthquake Activity

City Distance Mag. Time & Date
Minimum magnitude displayed is 2.5.

Coastal Water Temperatures

Place Temperature

Stations

Nearby Weather Stations

Station Location Temp. Windchill Dew Point Humidity Wind Precip. Elev Updated Type